sensor_id;sensor_type;location;lat;lon;timestamp;temperature;humidity
41557;DHT22;27720;51.992;5.890;2023-03-01T00:02:21;3.50;74.90
41557;DHT22;27720;51.992;5.890;2023-03-01T00:04:46;3.40;74.90
41557;DHT22;27720;51.992;5.890;2023-03-01T00:07:12;3.40;75.00
41557;DHT22;27720;51.992;5.890;2023-03-01T00:09:38;3.40;75.10
41557;DHT22;27720;51.992;5.890;2023-03-01T00:12:06;3.40;75.10
41557;DHT22;27720;51.992;5.890;2023-03-01T00:14:32;3.40;75.10
41557;DHT22;27720;51.992;5.890;2023-03-01T00:16:57;3.40;75.20
41557;DHT22;27720;51.992;5.890;2023-03-01T00:19:23;3.40;75.20
41557;DHT22;27720;51.992;5.890;2023-03-01T00:21:49;3.40;75.30
41557;DHT22;27720;51.992;5.890;2023-03-01T00:24:15;3.30;75.30
41557;DHT22;27720;51.992;5.890;2023-03-01T00:26:41;3.30;75.40
41557;DHT22;27720;51.992;5.890;2023-03-01T00:29:07;3.30;75.50
41557;DHT22;27720;51.992;5.890;2023-03-01T00:31:33;3.30;75.50
41557;DHT22;27720;51.992;5.890;2023-03-01T00:34:02;3.20;75.50
41557;DHT22;27720;51.992;5.890;2023-03-01T00:36:31;3.30;75.70
41557;DHT22;27720;51.992;5.890;2023-03-01T00:38:57;3.20;75.60
41557;DHT22;27720;51.992;5.890;2023-03-01T00:41:23;3.20;75.80
41557;DHT22;27720;51.992;5.890;2023-03-01T00:43:52;3.10;75.80
41557;DHT22;27720;51.992;5.890;2023-03-01T00:46:21;3.10;75.80
41557;DHT22;27720;51.992;5.890;2023-03-01T00:48:48;3.10;75.80
41557;DHT22;27720;51.992;5.890;2023-03-01T00:51:20;3.00;75.80
41557;DHT22;27720;51.992;5.890;2023-03-01T00:53:47;3.10;76.70
41557;DHT22;27720;51.992;5.890;2023-03-01T00:56:15;3.00;76.60
41557;DHT22;27720;51.992;5.890;2023-03-01T00:58:41;3.00;76.00
41557;DHT22;27720;51.992;5.890;2023-03-01T01:01:13;2.90;76.10
41557;DHT22;27720;51.992;5.890;2023-03-01T01:03:55;2.90;76.10
41557;DHT22;27720;51.992;5.890;2023-03-01T01:06:25;2.90;76.20
41557;DHT22;27720;51.992;5.890;2023-03-01T01:08:52;3.00;76.40
41557;DHT22;27720;51.992;5.890;2023-03-01T01:11:18;2.90;76.30
41557;DHT22;27720;51.992;5.890;2023-03-01T01:13:45;2.80;76.30
41557;DHT22;27720;51.992;5.890;2023-03-01T01:16:12;2.90;76.60
41557;DHT22;27720;51.992;5.890;2023-03-01T01:18:38;2.80;76.70
41557;DHT22;27720;51.992;5.890;2023-03-01T01:21:10;2.90;76.80
41557;DHT22;27720;51.992;5.890;2023-03-01T01:23:37;2.80;76.80
41557;DHT22;27720;51.992;5.890;2023-03-01T01:26:09;2.80;76.80
41557;DHT22;27720;51.992;5.890;2023-03-01T01:28:35;2.80;76.90
41557;DHT22;27720;51.992;5.890;2023-03-01T01:31:02;2.80;77.50
41557;DHT22;27720;51.992;5.890;2023-03-01T01:33:28;2.70;76.80
41557;DHT22;27720;51.992;5.890;2023-03-01T01:35:54;2.70;76.90
41557;DHT22;27720;51.992;5.890;2023-03-01T01:38:20;2.60;77.00
41557;DHT22;27720;51.992;5.890;2023-03-01T01:40:48;2.60;77.10
41557;DHT22;27720;51.992;5.890;2023-03-01T01:45:52;2.50;77.30
41557;DHT22;27720;51.992;5.890;2023-03-01T01:48:26;2.50;77.30
41557;DHT22;27720;51.992;5.890;2023-03-01T01:51:11;2.50;77.50
41557;DHT22;27720;51.992;5.890;2023-03-01T01:53:37;2.40;77.50
41557;DHT22;27720;51.992;5.890;2023-03-01T01:56:06;2.30;77.50
41557;DHT22;27720;51.992;5.890;2023-03-01T01:58:34;2.30;77.80
41557;DHT22;27720;51.992;5.890;2023-03-01T02:01:01;2.30;77.70
41557;DHT22;27720;51.992;5.890;2023-03-01T02:03:31;2.30;77.70
41557;DHT22;27720;51.992;5.890;2023-03-01T02:06:37;2.30;77.70
41557;DHT22;27720;51.992;5.890;2023-03-01T02:09:10;2.30;77.70
41557;DHT22;27720;51.992;5.890;2023-03-01T02:11:40;2.30;77.90
41557;DHT22;27720;51.992;5.890;2023-03-01T02:14:06;2.30;77.90
41557;DHT22;27720;51.992;5.890;2023-03-01T02:16:32;2.30;77.90
41557;DHT22;27720;51.992;5.890;2023-03-01T02:19:00;2.30;78.00
41557;DHT22;27720;51.992;5.890;2023-03-01T02:21:34;2.30;78.00
41557;DHT22;27720;51.992;5.890;2023-03-01T02:27:12;2.30;78.00
41557;DHT22;27720;51.992;5.890;2023-03-01T02:29:38;2.20;78.10
41557;DHT22;27720;51.992;5.890;2023-03-01T02:32:05;2.20;78.20
41557;DHT22;27720;51.992;5.890;2023-03-01T02:34:31;2.10;78.90
41557;DHT22;27720;51.992;5.890;2023-03-01T02:37:05;2.20;78.30
41557;DHT22;27720;51.992;5.890;2023-03-01T02:39:59;2.20;78.30
41557;DHT22;27720;51.992;5.890;2023-03-01T02:42:33;2.20;78.10
41557;DHT22;27720;51.992;5.890;2023-03-01T02:45:01;2.20;78.30
41557;DHT22;27720;51.992;5.890;2023-03-01T02:47:29;2.20;78.30
41557;DHT22;27720;51.992;5.890;2023-03-01T02:49:55;2.30;78.30
41557;DHT22;27720;51.992;5.890;2023-03-01T02:55:06;2.20;78.30
41557;DHT22;27720;51.992;5.890;2023-03-01T02:57:35;2.30;78.30
41557;DHT22;27720;51.992;5.890;2023-03-01T03:00:14;2.20;78.40
41557;DHT22;27720;51.992;5.890;2023-03-01T03:02:49;2.20;78.50
41557;DHT22;27720;51.992;5.890;2023-03-01T03:05:24;2.20;78.60
41557;DHT22;27720;51.992;5.890;2023-03-01T03:07:53;2.20;78.60
41557;DHT22;27720;51.992;5.890;2023-03-01T03:10:25;2.20;78.60
41557;DHT22;27720;51.992;5.890;2023-03-01T03:12:53;2.30;78.60
41557;DHT22;27720;51.992;5.890;2023-03-01T03:15:20;2.20;78.60
41557;DHT22;27720;51.992;5.890;2023-03-01T03:17:46;2.20;78.60
41557;DHT22;27720;51.992;5.890;2023-03-01T03:20:15;2.20;78.60
41557;DHT22;27720;51.992;5.890;2023-03-01T03:22:48;2.20;78.80
41557;DHT22;27720;51.992;5.890;2023-03-01T03:25:16;2.20;78.80
41557;DHT22;27720;51.992;5.890;2023-03-01T03:27:43;2.20;79.50
41557;DHT22;27720;51.992;5.890;2023-03-01T03:30:12;2.20;78.80
41557;DHT22;27720;51.992;5.890;2023-03-01T03:32:45;2.30;78.80
41557;DHT22;27720;51.992;5.890;2023-03-01T03:35:23;2.30;78.80
41557;DHT22;27720;51.992;5.890;2023-03-01T03:37:50;2.30;78.80
41557;DHT22;27720;51.992;5.890;2023-03-01T03:40:35;2.30;78.80
41557;DHT22;27720;51.992;5.890;2023-03-01T03:43:03;2.30;78.80
41557;DHT22;27720;51.992;5.890;2023-03-01T03:45:29;2.30;78.80
41557;DHT22;27720;51.992;5.890;2023-03-01T03:47:55;2.30;78.90
41557;DHT22;27720;51.992;5.890;2023-03-01T03:50:20;2.30;78.80
41557;DHT22;27720;51.992;5.890;2023-03-01T03:52:46;2.40;78.90
41557;DHT22;27720;51.992;5.890;2023-03-01T03:55:13;2.40;78.80
41557;DHT22;27720;51.992;5.890;2023-03-01T03:57:40;2.40;78.90
41557;DHT22;27720;51.992;5.890;2023-03-01T04:00:08;2.40;78.90
41557;DHT22;27720;51.992;5.890;2023-03-01T04:02:42;2.40;79.00
41557;DHT22;27720;51.992;5.890;2023-03-01T04:05:12;2.40;79.10
41557;DHT22;27720;51.992;5.890;2023-03-01T04:07:40;2.50;79.10
41557;DHT22;27720;51.992;5.890;2023-03-01T04:10:09;2.50;79.20
41557;DHT22;27720;51.992;5.890;2023-03-01T04:12:36;2.50;79.20
41557;DHT22;27720;51.992;5.890;2023-03-01T04:15:03;2.50;79.30
41557;DHT22;27720;51.992;5.890;2023-03-01T04:17:42;2.50;79.30
41557;DHT22;27720;51.992;5.890;2023-03-01T04:20:10;2.50;79.30
41557;DHT22;27720;51.992;5.890;2023-03-01T04:22:43;2.50;79.40
41557;DHT22;27720;51.992;5.890;2023-03-01T04:25:12;2.50;79.40
41557;DHT22;27720;51.992;5.890;2023-03-01T04:27:39;2.40;79.40
41557;DHT22;27720;51.992;5.890;2023-03-01T04:30:06;2.50;79.50
41557;DHT22;27720;51.992;5.890;2023-03-01T04:32:33;2.50;79.50
41557;DHT22;27720;51.992;5.890;2023-03-01T04:35:02;2.50;79.50
41557;DHT22;27720;51.992;5.890;2023-03-01T04:37:27;2.40;79.50
41557;DHT22;27720;51.992;5.890;2023-03-01T04:39:53;2.40;79.50
41557;DHT22;27720;51.992;5.890;2023-03-01T04:42:19;2.40;79.50
41557;DHT22;27720;51.992;5.890;2023-03-01T04:44:45;2.40;79.60
41557;DHT22;27720;51.992;5.890;2023-03-01T04:47:12;2.40;79.70
41557;DHT22;27720;51.992;5.890;2023-03-01T04:49:38;2.40;79.70
41557;DHT22;27720;51.992;5.890;2023-03-01T04:52:04;2.30;79.70
41557;DHT22;27720;51.992;5.890;2023-03-01T04:54:31;2.30;79.80
41557;DHT22;27720;51.992;5.890;2023-03-01T04:56:57;2.30;79.80
41557;DHT22;27720;51.992;5.890;2023-03-01T04:59:23;2.30;79.80
41557;DHT22;27720;51.992;5.890;2023-03-01T05:01:50;2.30;79.90
41557;DHT22;27720;51.992;5.890;2023-03-01T05:04:16;2.30;80.00
41557;DHT22;27720;51.992;5.890;2023-03-01T05:06:42;2.30;80.70
41557;DHT22;27720;51.992;5.890;2023-03-01T05:09:08;2.30;80.60
41557;DHT22;27720;51.992;5.890;2023-03-01T05:11:37;2.30;80.00
41557;DHT22;27720;51.992;5.890;2023-03-01T05:14:07;2.30;80.00
41557;DHT22;27720;51.992;5.890;2023-03-01T05:16:34;2.30;80.00
41557;DHT22;27720;51.992;5.890;2023-03-01T05:19:02;2.30;80.00
41557;DHT22;27720;51.992;5.890;2023-03-01T05:21:39;2.30;80.10
41557;DHT22;27720;51.992;5.890;2023-03-01T05:24:25;2.40;80.10
41557;DHT22;27720;51.992;5.890;2023-03-01T05:26:52;2.30;80.10
41557;DHT22;27720;51.992;5.890;2023-03-01T05:29:19;2.30;80.80
41557;DHT22;27720;51.992;5.890;2023-03-01T05:32:01;2.40;80.20
41557;DHT22;27720;51.992;5.890;2023-03-01T05:34:29;2.30;80.20
41557;DHT22;27720;51.992;5.890;2023-03-01T05:36:55;2.30;80.30
41557;DHT22;27720;51.992;5.890;2023-03-01T05:39:24;2.30;81.00
41557;DHT22;27720;51.992;5.890;2023-03-01T05:41:58;2.30;80.30
41557;DHT22;27720;51.992;5.890;2023-03-01T05:44:24;2.30;80.30
41557;DHT22;27720;51.992;5.890;2023-03-01T05:46:50;2.30;80.40
41557;DHT22;27720;51.992;5.890;2023-03-01T05:49:17;2.30;80.40
41557;DHT22;27720;51.992;5.890;2023-03-01T05:51:47;2.30;80.50
41557;DHT22;27720;51.992;5.890;2023-03-01T05:54:13;2.30;80.50
41557;DHT22;27720;51.992;5.890;2023-03-01T05:56:39;2.30;80.50
41557;DHT22;27720;51.992;5.890;2023-03-01T05:59:08;2.30;80.50
41557;DHT22;27720;51.992;5.890;2023-03-01T06:01:35;2.30;80.60
41557;DHT22;27720;51.992;5.890;2023-03-01T06:04:01;2.30;80.60
41557;DHT22;27720;51.992;5.890;2023-03-01T06:06:27;2.30;80.70
41557;DHT22;27720;51.992;5.890;2023-03-01T06:08:53;2.20;80.80
41557;DHT22;27720;51.992;5.890;2023-03-01T06:11:20;2.20;81.50
41557;DHT22;27720;51.992;5.890;2023-03-01T06:13:46;2.20;81.00
41557;DHT22;27720;51.992;5.890;2023-03-01T06:16:13;2.20;81.10
41557;DHT22;27720;51.992;5.890;2023-03-01T06:18:40;2.20;81.10
41557;DHT22;27720;51.992;5.890;2023-03-01T06:21:07;2.20;81.00
41557;DHT22;27720;51.992;5.890;2023-03-01T06:23:33;2.20;81.00
41557;DHT22;27720;51.992;5.890;2023-03-01T06:25:59;2.20;81.00
41557;DHT22;27720;51.992;5.890;2023-03-01T06:28:25;2.20;81.00
41557;DHT22;27720;51.992;5.890;2023-03-01T06:30:51;2.30;81.00
41557;DHT22;27720;51.992;5.890;2023-03-01T06:33:18;2.30;81.00
41557;DHT22;27720;51.992;5.890;2023-03-01T06:35:46;2.30;81.10
41557;DHT22;27720;51.992;5.890;2023-03-01T06:38:12;2.30;81.00
41557;DHT22;27720;51.992;5.890;2023-03-01T06:40:40;2.30;81.10
41557;DHT22;27720;51.992;5.890;2023-03-01T06:43:07;2.30;81.20
41557;DHT22;27720;51.992;5.890;2023-03-01T06:45:33;2.30;81.30
41557;DHT22;27720;51.992;5.890;2023-03-01T06:48:06;2.40;81.30
41557;DHT22;27720;51.992;5.890;2023-03-01T06:50:34;2.40;81.30
41557;DHT22;27720;51.992;5.890;2023-03-01T06:53:00;2.40;81.40
41557;DHT22;27720;51.992;5.890;2023-03-01T06:55:32;2.40;81.50
41557;DHT22;27720;51.992;5.890;2023-03-01T06:58:01;2.40;81.50
41557;DHT22;27720;51.992;5.890;2023-03-01T07:00:30;2.40;81.60
41557;DHT22;27720;51.992;5.890;2023-03-01T07:02:59;2.40;81.70
41557;DHT22;27720;51.992;5.890;2023-03-01T07:05:24;2.40;81.70
41557;DHT22;27720;51.992;5.890;2023-03-01T07:07:50;2.40;81.80
41557;DHT22;27720;51.992;5.890;2023-03-01T07:10:16;2.40;82.50
41557;DHT22;27720;51.992;5.890;2023-03-01T07:12:42;2.40;81.90
41557;DHT22;27720;51.992;5.890;2023-03-01T07:15:08;2.50;82.10
41557;DHT22;27720;51.992;5.890;2023-03-01T07:17:35;2.40;82.00
41557;DHT22;27720;51.992;5.890;2023-03-01T07:20:00;2.50;82.10
41557;DHT22;27720;51.992;5.890;2023-03-01T07:22:26;2.50;82.20
41557;DHT22;27720;51.992;5.890;2023-03-01T07:24:52;2.50;82.20
41557;DHT22;27720;51.992;5.890;2023-03-01T07:27:17;2.50;82.20
41557;DHT22;27720;51.992;5.890;2023-03-01T07:29:43;2.50;82.20
41557;DHT22;27720;51.992;5.890;2023-03-01T07:32:09;2.60;82.30
41557;DHT22;27720;51.992;5.890;2023-03-01T07:34:36;2.60;82.30
41557;DHT22;27720;51.992;5.890;2023-03-01T07:37:02;2.60;82.30
41557;DHT22;27720;51.992;5.890;2023-03-01T07:39:30;2.60;82.40
41557;DHT22;27720;51.992;5.890;2023-03-01T07:41:56;2.70;82.40
41557;DHT22;27720;51.992;5.890;2023-03-01T07:44:22;2.70;82.50
41557;DHT22;27720;51.992;5.890;2023-03-01T07:46:48;2.70;82.50
41557;DHT22;27720;51.992;5.890;2023-03-01T07:49:13;2.80;82.60
41557;DHT22;27720;51.992;5.890;2023-03-01T07:51:39;2.80;82.60
41557;DHT22;27720;51.992;5.890;2023-03-01T07:54:05;2.80;82.60
41557;DHT22;27720;51.992;5.890;2023-03-01T07:56:31;2.90;82.60
41557;DHT22;27720;51.992;5.890;2023-03-01T07:58:59;2.90;82.60
41557;DHT22;27720;51.992;5.890;2023-03-01T08:01:25;2.90;82.60
41557;DHT22;27720;51.992;5.890;2023-03-01T08:03:50;3.00;82.70
41557;DHT22;27720;51.992;5.890;2023-03-01T08:06:17;3.00;82.50
41557;DHT22;27720;51.992;5.890;2023-03-01T08:08:45;3.10;82.50
41557;DHT22;27720;51.992;5.890;2023-03-01T08:11:13;3.10;82.40
41557;DHT22;27720;51.992;5.890;2023-03-01T08:13:39;3.20;82.40
41557;DHT22;27720;51.992;5.890;2023-03-01T08:16:12;3.30;82.40
41557;DHT22;27720;51.992;5.890;2023-03-01T08:18:38;3.30;82.30
41557;DHT22;27720;51.992;5.890;2023-03-01T08:21:10;3.40;82.30
41557;DHT22;27720;51.992;5.890;2023-03-01T08:23:36;3.40;82.30
41557;DHT22;27720;51.992;5.890;2023-03-01T08:26:19;3.40;82.30
41557;DHT22;27720;51.992;5.890;2023-03-01T08:28:46;3.50;82.30
41557;DHT22;27720;51.992;5.890;2023-03-01T08:31:34;3.50;82.10
41557;DHT22;27720;51.992;5.890;2023-03-01T08:34:07;3.60;81.70
41557;DHT22;27720;51.992;5.890;2023-03-01T08:36:36;3.60;81.80
41557;DHT22;27720;51.992;5.890;2023-03-01T08:39:03;3.70;81.80
41557;DHT22;27720;51.992;5.890;2023-03-01T08:41:29;3.80;81.60
41557;DHT22;27720;51.992;5.890;2023-03-01T08:43:55;3.80;81.40
41557;DHT22;27720;51.992;5.890;2023-03-01T08:46:30;3.90;81.40
41557;DHT22;27720;51.992;5.890;2023-03-01T08:48:56;4.00;81.20
41557;DHT22;27720;51.992;5.890;2023-03-01T08:51:22;4.00;81.00
41557;DHT22;27720;51.992;5.890;2023-03-01T08:53:49;4.10;80.90
41557;DHT22;27720;51.992;5.890;2023-03-01T08:56:15;4.20;80.80
41557;DHT22;27720;51.992;5.890;2023-03-01T08:58:50;4.20;80.70
41557;DHT22;27720;51.992;5.890;2023-03-01T09:01:18;4.30;80.60
41557;DHT22;27720;51.992;5.890;2023-03-01T09:03:46;4.40;80.30
41557;DHT22;27720;51.992;5.890;2023-03-01T09:06:13;4.50;80.20
41557;DHT22;27720;51.992;5.890;2023-03-01T09:08:44;4.60;80.20
41557;DHT22;27720;51.992;5.890;2023-03-01T09:11:12;4.60;79.90
41557;DHT22;27720;51.992;5.890;2023-03-01T09:13:38;4.70;79.90
41557;DHT22;27720;51.992;5.890;2023-03-01T09:16:06;4.70;79.40
41557;DHT22;27720;51.992;5.890;2023-03-01T09:18:33;4.80;78.80
41557;DHT22;27720;51.992;5.890;2023-03-01T09:21:07;4.80;78.30
41557;DHT22;27720;51.992;5.890;2023-03-01T09:23:38;4.90;77.80
41557;DHT22;27720;51.992;5.890;2023-03-01T09:26:05;5.00;77.30
41557;DHT22;27720;51.992;5.890;2023-03-01T09:28:31;5.00;77.00
41557;DHT22;27720;51.992;5.890;2023-03-01T09:31:01;5.10;76.70
41557;DHT22;27720;51.992;5.890;2023-03-01T09:33:28;5.20;76.60
41557;DHT22;27720;51.992;5.890;2023-03-01T09:36:03;5.30;76.00
41557;DHT22;27720;51.992;5.890;2023-03-01T09:38:32;5.30;76.10
41557;DHT22;27720;51.992;5.890;2023-03-01T09:41:00;5.40;75.60
41557;DHT22;27720;51.992;5.890;2023-03-01T09:46:01;5.50;75.50
41557;DHT22;27720;51.992;5.890;2023-03-01T09:48:37;5.60;74.00
41557;DHT22;27720;51.992;5.890;2023-03-01T09:51:08;5.60;72.30
41557;DHT22;27720;51.992;5.890;2023-03-01T09:53:38;5.70;71.90
41557;DHT22;27720;51.992;5.890;2023-03-01T09:56:36;5.60;70.30
41557;DHT22;27720;51.992;5.890;2023-03-01T10:00:00;5.70;69.70
41557;DHT22;27720;51.992;5.890;2023-03-01T10:02:43;5.80;70.10
41557;DHT22;27720;51.992;5.890;2023-03-01T10:08:19;6.00;70.10
41557;DHT22;27720;51.992;5.890;2023-03-01T10:10:49;6.10;70.40
41557;DHT22;27720;51.992;5.890;2023-03-01T10:16:13;6.30;70.10
41557;DHT22;27720;51.992;5.890;2023-03-01T10:18:41;6.40;69.50
41557;DHT22;27720;51.992;5.890;2023-03-01T10:21:15;6.40;69.00
41557;DHT22;27720;51.992;5.890;2023-03-01T10:23:42;6.50;68.30
41557;DHT22;27720;51.992;5.890;2023-03-01T10:26:21;6.40;67.60
41557;DHT22;27720;51.992;5.890;2023-03-01T10:31:26;6.60;67.70
41557;DHT22;27720;51.992;5.890;2023-03-01T10:33:55;6.60;67.60
41557;DHT22;27720;51.992;5.890;2023-03-01T10:36:23;6.70;67.30
41557;DHT22;27720;51.992;5.890;2023-03-01T10:38:57;6.80;67.40
41557;DHT22;27720;51.992;5.890;2023-03-01T10:41:25;6.90;66.60
41557;DHT22;27720;51.992;5.890;2023-03-01T10:43:58;7.00;67.10
41557;DHT22;27720;51.992;5.890;2023-03-01T10:49:22;7.10;66.60
41557;DHT22;27720;51.992;5.890;2023-03-01T10:51:51;7.20;66.80
41557;DHT22;27720;51.992;5.890;2023-03-01T10:56:53;7.40;67.10
41557;DHT22;27720;51.992;5.890;2023-03-01T10:59:33;7.50;66.80
41557;DHT22;27720;51.992;5.890;2023-03-01T11:04:35;7.60;67.20
41557;DHT22;27720;51.992;5.890;2023-03-01T11:07:02;7.70;65.70
41557;DHT22;27720;51.992;5.890;2023-03-01T11:09:33;7.80;66.00
41557;DHT22;27720;51.992;5.890;2023-03-01T11:12:05;7.80;65.20
41557;DHT22;27720;51.992;5.890;2023-03-01T11:14:38;7.90;66.00
41557;DHT22;27720;51.992;5.890;2023-03-01T11:17:19;8.00;65.40
41557;DHT22;27720;51.992;5.890;2023-03-01T11:22:47;8.20;64.80
41557;DHT22;27720;51.992;5.890;2023-03-01T11:25:15;8.20;64.70
41557;DHT22;27720;51.992;5.890;2023-03-01T11:27:44;8.30;64.70
41557;DHT22;27720;51.992;5.890;2023-03-01T11:30:24;8.40;63.80
41557;DHT22;27720;51.992;5.890;2023-03-01T11:35:56;8.60;63.60
41557;DHT22;27720;51.992;5.890;2023-03-01T11:38:25;8.70;63.10
41557;DHT22;27720;51.992;5.890;2023-03-01T11:40:55;8.70;61.70
41557;DHT22;27720;51.992;5.890;2023-03-01T11:44:24;8.80;61.50
41557;DHT22;27720;51.992;5.890;2023-03-01T11:49:51;9.00;61.50
41557;DHT22;27720;51.992;5.890;2023-03-01T11:52:37;9.00;60.90
41557;DHT22;27720;51.992;5.890;2023-03-01T12:01:02;9.30;60.70
41557;DHT22;27720;51.992;5.890;2023-03-01T12:03:57;9.30;60.20
41557;DHT22;27720;51.992;5.890;2023-03-01T12:09:09;9.40;59.00
41557;DHT22;27720;51.992;5.890;2023-03-01T12:11:54;9.50;59.40
41557;DHT22;27720;51.992;5.890;2023-03-01T12:31:43;9.80;57.90
41557;DHT22;27720;51.992;5.890;2023-03-01T12:42:11;10.10;57.50
41557;DHT22;27720;51.992;5.890;2023-03-01T12:49:48;10.40;57.40
41557;DHT22;27720;51.992;5.890;2023-03-01T12:54:55;10.50;56.60
41557;DHT22;27720;51.992;5.890;2023-03-01T12:57:29;10.50;56.70
41557;DHT22;27720;51.992;5.890;2023-03-01T13:00:27;10.60;56.60
41557;DHT22;27720;51.992;5.890;2023-03-01T13:06:14;10.70;55.50
41557;DHT22;27720;51.992;5.890;2023-03-01T13:09:06;10.70;56.00
41557;DHT22;27720;51.992;5.890;2023-03-01T13:11:41;10.70;56.20
